Time;durP1;ratioP1;P1;durP2;ratioP2;P2;SDS_P1;SDS_P2;PMS_P1;PMS_P2;Temp;Humidity;BMP_temperature;BMP_pressure;BME280_temperature;BME280_humidity;BME280_pressure;Samples;Min_cycle;Max_cycle;Signal;HPM_P1;HPM_P2
2022/10/28 00:01:31;;;;;;;66.40;36.60;;;;;;;17.44;77.11;102328.19;4949022;28;20047;-85
2022/10/28 00:03:59;;;;;;;77.25;38.40;;;;;;;18.07;77.06;102441.50;4948438;28;20150;-83
2022/10/28 00:06:32;;;;;;;67.05;37.25;;;;;;;17.28;76.97;102307.22;4951145;28;20061;-83
2022/10/28 00:09:07;;;;;;;64.72;39.33;;;;;;;18.21;77.08;102461.75;4957082;28;20051;-82
2022/10/28 00:11:40;;;;;;;65.68;37.83;;;;;;;18.21;76.91;102461.75;4962757;28;20066;-82
2022/10/28 00:14:10;;;;;;;68.68;39.88;;;;;;;18.10;77.06;102449.28;4946748;28;20049;-82
2022/10/28 00:16:37;;;;;;;72.22;38.45;;;;;;;17.92;76.96;102416.88;4950322;28;20201;-83
2022/10/28 00:19:06;;;;;;;74.65;39.55;;;;;;;17.99;77.31;102432.47;4963264;28;20523;-83
2022/10/28 00:21:36;;;;;;;65.63;40.58;;;;;;;17.77;77.28;102399.47;4950351;28;20219;-83
2022/10/28 00:24:03;;;;;;;62.28;38.33;;;;;;;17.79;77.08;102407.34;4946843;28;20061;-84
2022/10/28 00:26:32;;;;;;;64.20;40.08;;;;;;;18.00;77.07;102443.03;4943930;28;20050;-84
2022/10/28 00:29:08;;;;;;;60.15;38.85;;;;;;;17.03;77.00;102284.47;4967989;28;20232;-83
2022/10/28 00:31:38;;;;;;;68.32;40.33;;;;;;;17.38;77.08;102350.19;4961893;28;20312;-83
2022/10/28 00:34:10;;;;;;;68.88;38.35;;;;;;;16.88;77.08;102263.38;4947482;28;20043;-83
2022/10/28 00:36:45;;;;;;;61.25;37.67;;;;;;;17.60;77.36;102382.19;4961382;28;20042;-83
2022/10/28 00:39:19;;;;;;;69.35;41.30;;;;;;;17.58;77.28;102388.69;4952194;28;20588;-83
2022/10/28 00:41:56;;;;;;;61.92;38.25;;;;;;;17.38;77.35;102356.44;4949095;28;20535;-83
2022/10/28 00:44:54;;;;;;;68.45;36.58;;;;;;;18.03;77.13;102458.88;4951916;28;20057;-84
2022/10/28 00:47:40;;;;;;;63.78;39.15;;;;;;;17.98;77.45;102454.94;4953232;28;20492;-86
2022/10/28 00:50:40;;;;;;;59.70;37.75;;;;;;;17.97;77.28;102467.53;4953282;28;20062;-82
2022/10/28 00:53:21;;;;;;;59.75;38.83;;;;;;;17.54;77.14;102396.16;4953066;28;20176;-86
2022/10/28 00:55:50;;;;;;;62.17;36.97;;;;;;;17.37;77.15;102365.47;4952745;28;20054;-84
2022/10/28 00:58:19;;;;;;;72.07;39.58;;;;;;;17.92;77.52;102456.34;4954032;28;20050;-84
2022/10/28 01:00:46;;;;;;;68.03;38.80;;;;;;;17.73;77.29;102441.84;4948795;28;20050;-84
2022/10/28 01:03:24;;;;;;;66.45;39.00;;;;;;;17.06;76.96;102319.06;4952771;28;20144;-85
2022/10/28 01:05:56;;;;;;;63.15;39.03;;;;;;;17.90;77.05;102458.31;4955866;28;20354;-85
2022/10/28 01:08:31;;;;;;;65.78;39.58;;;;;;;17.89;77.52;102462.00;4952372;28;20055;-81
2022/10/28 01:11:31;;;;;;;64.03;37.72;;;;;;;17.88;77.48;102465.66;4965603;28;20050;-83
2022/10/28 01:14:01;;;;;;;61.10;37.80;;;;;;;17.85;77.42;102465.94;4923129;28;20152;-84
2022/10/28 01:16:51;;;;;;;62.95;38.70;;;;;;;16.76;77.01;102307.34;4950343;28;20156;-83
2022/10/28 01:20:02;;;;;;;57.22;38.15;;;;;;;17.72;77.59;102456.28;4964587;28;20168;-83
2022/10/28 01:22:41;;;;;;;67.20;38.20;;;;;;;17.71;77.22;102453.72;4949481;28;20077;-84
2022/10/28 01:25:22;;;;;;;64.00;38.75;;;;;;;17.54;76.80;102424.84;4951550;28;20485;-83
2022/10/28 01:28:07;;;;;;;65.72;38.60;;;;;;;17.81;77.26;102469.88;4965191;28;20511;-83
2022/10/28 01:30:54;;;;;;;59.40;37.55;;;;;;;17.71;77.14;102459.09;4967774;28;20144;-83
2022/10/28 01:33:30;;;;;;;65.53;37.25;;;;;;;17.59;77.09;102439.56;4952538;28;20366;-84
2022/10/28 01:36:07;;;;;;;66.63;38.05;;;;;;;17.56;77.08;102415.69;4951276;28;20552;-83
2022/10/28 01:38:50;;;;;;;63.42;36.78;;;;;;;17.53;76.57;102389.09;4958805;28;20050;-84
2022/10/28 01:41:42;;;;;;;61.67;35.03;;;;;;;17.65;76.25;102422.91;4963742;28;20193;-83
2022/10/28 01:44:41;;;;;;;67.10;36.53;;;;;;;17.41;76.22;102392.91;4949841;28;20713;-83
2022/10/28 01:47:39;;;;;;;58.83;34.50;;;;;;;17.67;76.50;102442.41;4949499;28;20050;-82
2022/10/28 01:50:17;;;;;;;62.20;36.35;;;;;;;17.67;76.92;102447.78;4969802;28;20251;-84
2022/10/28 01:52:47;;;;;;;60.78;36.85;;;;;;;17.71;77.20;102454.56;4958880;28;20096;-83
2022/10/28 01:55:26;;;;;;;66.28;36.92;;;;;;;17.56;76.98;102431.78;4955194;28;20165;-84
2022/10/28 01:57:58;;;;;;;53.03;35.30;;;;;;;17.60;77.17;102452.00;4958340;28;20085;-83
2022/10/28 02:00:28;;;;;;;64.18;36.95;;;;;;;17.60;77.15;102445.78;4958066;28;20058;-84
2022/10/28 02:02:55;;;;;;;59.45;35.80;;;;;;;17.61;77.01;102456.38;4958483;28;20467;-85
2022/10/28 02:05:49;;;;;;;72.50;39.78;;;;;;;17.17;77.53;102390.56;4958811;28;20172;-83
2022/10/28 02:08:23;;;;;;;67.40;39.38;;;;;;;17.51;77.82;102450.16;4939538;28;20057;-83
2022/10/28 02:10:59;;;;;;;57.42;35.55;;;;;;;17.50;78.38;102452.00;4939516;28;20278;-84
2022/10/28 02:13:53;;;;;;;63.63;37.22;;;;;;;17.48;78.13;102453.97;4941765;28;20059;-84
2022/10/28 02:16:32;;;;;;;67.32;37.35;;;;;;;17.48;78.40;102453.13;4943855;28;20227;-84
2022/10/28 02:19:33;;;;;;;64.57;36.15;;;;;;;17.36;77.63;102411.25;4935101;28;20059;-82
2022/10/28 02:22:19;;;;;;;58.17;35.88;;;;;;;16.61;77.57;102295.31;4930976;28;20093;-83
2022/10/28 02:25:06;;;;;;;62.28;36.35;;;;;;;17.50;77.71;102445.75;4939989;28;20156;-82
2022/10/28 02:27:58;;;;;;;60.63;38.45;;;;;;;17.40;78.00;102423.41;4940371;28;20085;-85
2022/10/28 02:30:59;;;;;;;64.03;36.97;;;;;;;17.51;77.78;102448.31;4939067;28;20050;-85
2022/10/28 02:33:32;;;;;;;68.28;37.53;;;;;;;17.52;77.54;102441.09;4938727;28;20521;-84
2022/10/28 02:36:27;;;;;;;67.63;37.90;;;;;;;17.16;77.76;102389.72;4940359;28;20050;-84
2022/10/28 02:39:00;;;;;;;53.92;34.92;;;;;;;17.47;77.87;102446.03;4959778;28;20544;-83
2022/10/28 02:41:38;;;;;;;69.10;36.70;;;;;;;17.38;77.79;102414.63;4958363;28;20490;-86
2022/10/28 02:44:10;;;;;;;60.80;37.47;;;;;;;17.56;77.57;102442.53;4956322;28;20573;-84
2022/10/28 02:46:40;;;;;;;61.80;36.15;;;;;;;16.92;77.34;102340.88;4972106;28;20057;-84
2022/10/28 02:49:13;;;;;;;67.43;37.90;;;;;;;16.46;77.59;102268.03;4973949;28;20282;-83
2022/10/28 02:51:54;;;;;;;66.75;37.22;;;;;;;17.51;77.82;102436.72;4960895;28;20058;-83
2022/10/28 02:54:38;;;;;;;61.35;36.47;;;;;;;16.89;77.71;102355.44;4958178;28;20212;-83
2022/10/28 02:57:14;;;;;;;61.35;38.60;;;;;;;15.98;77.83;102205.16;4958092;28;20054;-84
2022/10/28 03:00:10;;;;;;;64.35;39.33;;;;;;;17.42;77.85;102434.84;4960328;28;20057;-84
2022/10/28 03:02:43;;;;;;;66.45;39.35;;;;;;;17.42;77.97;102433.00;4949533;28;20262;-84
2022/10/28 03:05:19;;;;;;;61.42;39.05;;;;;;;16.82;77.88;102338.16;4962064;28;20050;-83
2022/10/28 03:07:55;;;;;;;71.20;39.35;;;;;;;17.19;78.10;102402.03;4962149;28;20104;-84
2022/10/28 03:10:26;;;;;;;74.28;39.72;;;;;;;17.26;78.34;102412.06;4971245;28;20046;-85
2022/10/28 03:13:01;;;;;;;76.65;41.22;;;;;;;16.03;78.07;102202.09;4940633;28;20054;-86
2022/10/28 03:15:33;;;;;;;71.28;41.67;;;;;;;16.57;78.39;102296.56;4948434;28;20212;-84
2022/10/28 03:18:03;;;;;;;87.55;40.63;;;;;;;16.14;77.93;102236.84;4952191;28;20489;-84
2022/10/28 03:20:31;;;;;;;80.47;41.92;;;;;;;16.72;78.15;102329.22;4949467;28;20051;-84
2022/10/28 03:23:01;;;;;;;74.40;41.75;;;;;;;17.38;77.91;102436.97;4951951;28;20301;-85
2022/10/28 03:25:31;;;;;;;77.32;42.45;;;;;;;17.31;78.24;102419.72;4954800;28;20050;-84
2022/10/28 03:28:04;;;;;;;69.35;41.25;;;;;;;17.39;78.17;102432.44;4956468;28;20051;-83
2022/10/28 03:30:34;;;;;;;73.40;40.85;;;;;;;17.39;78.00;102437.81;4976142;28;20086;-86
2022/10/28 03:33:01;;;;;;;83.88;43.33;;;;;;;17.30;78.20;102432.25;4961500;28;20034;-85
2022/10/28 03:35:34;;;;;;;79.00;43.90;;;;;;;17.00;78.08;102376.81;4963077;28;20139;-86
2022/10/28 03:38:01;;;;;;;87.22;44.13;;;;;;;17.30;77.94;102418.84;4965459;28;20486;-86
2022/10/28 03:40:34;;;;;;;70.32;42.85;;;;;;;17.14;78.24;102399.75;4946053;28;20468;-84
2022/10/28 03:43:08;;;;;;;74.32;43.30;;;;;;;17.39;77.81;102443.19;4939456;28;20150;-85
2022/10/28 03:45:38;;;;;;;69.40;41.47;;;;;;;17.34;78.23;102434.69;4938316;28;20469;-83
2022/10/28 03:48:09;;;;;;;76.53;44.27;;;;;;;17.02;78.25;102384.72;4938246;28;20074;-84
2022/10/28 03:50:36;;;;;;;71.63;43.13;;;;;;;17.33;78.31;102443.72;4959410;28;20054;-82
2022/10/28 03:53:02;;;;;;;76.95;41.80;;;;;;;16.46;78.16;102310.91;4953243;28;20053;-86
2022/10/28 03:55:29;;;;;;;84.07;43.13;;;;;;;16.80;78.01;102370.50;4957844;28;20081;-84
2022/10/28 03:58:01;;;;;;;77.85;43.78;;;;;;;17.35;78.44;102452.50;4956384;28;20147;-86
2022/10/28 04:00:28;;;;;;;77.22;41.70;;;;;;;16.71;78.39;102344.47;4962057;28;20468;-85
2022/10/28 04:02:58;;;;;;;78.82;43.55;;;;;;;17.31;78.24;102441.19;4963991;28;20141;-82
2022/10/28 04:05:26;;;;;;;66.32;42.08;;;;;;;17.14;78.24;102413.16;4958608;28;20090;-84
2022/10/28 04:07:54;;;;;;;71.65;42.85;;;;;;;17.30;78.65;102445.69;4959637;28;20050;-85
2022/10/28 04:10:24;;;;;;;74.93;43.47;;;;;;;17.18;78.63;102414.56;4957428;28;20050;-86
2022/10/28 04:12:51;;;;;;;71.63;41.95;;;;;;;17.04;78.67;102390.81;4962060;28;20061;-82
2022/10/28 04:15:21;;;;;;;74.95;43.75;;;;;;;17.28;78.22;102431.56;4959855;28;20159;-86
2022/10/28 04:17:50;;;;;;;;;;;;;;;17.24;78.13;102434.66;4950641;28;20508;-85
2022/10/28 04:20:19;;;;;;;70.95;42.90;;;;;;;16.86;78.29;102369.97;4949263;28;20309;-85
2022/10/28 04:22:48;;;;;;;82.35;44.80;;;;;;;17.23;78.47;102435.63;4951899;28;20124;-85
2022/10/28 04:25:26;;;;;;;78.68;43.88;;;;;;;17.24;78.61;102440.03;4953780;28;20158;-85
2022/10/28 04:27:53;;;;;;;82.57;44.03;;;;;;;17.19;78.78;102424.34;4936320;28;20658;-85
2022/10/28 04:30:35;;;;;;;74.93;43.30;;;;;;;16.96;78.47;102387.94;4937458;28;20245;-84
2022/10/28 04:33:02;;;;;;;;;;;;;;;17.22;78.77;102433.94;4936350;28;20522;-84
2022/10/28 04:35:29;;;;;;;78.93;43.40;;;;;;;16.21;78.86;102272.84;4940124;28;20117;-85
2022/10/28 04:37:57;;;;;;;76.53;44.05;;;;;;;16.93;78.46;102396.25;4949389;28;20161;-82
2022/10/28 04:40:24;;;;;;;92.90;46.20;;;;;;;17.12;78.89;102425.84;4980475;28;20078;-84
2022/10/28 04:42:50;;;;;;;79.82;45.80;;;;;;;17.14;78.90;102439.16;4966957;28;20046;-85
2022/10/28 04:45:20;;;;;;;80.90;43.63;;;;;;;17.09;78.90;102428.81;4955936;28;20073;-85
2022/10/28 04:47:58;;;;;;;79.97;44.47;;;;;;;15.79;78.47;102221.97;4963240;28;20308;-84
2022/10/28 04:50:25;;;;;;;76.95;44.97;;;;;;;16.66;79.32;102365.47;4960885;28;20054;-85
2022/10/28 04:52:56;;;;;;;83.72;44.95;;;;;;;17.18;78.82;102424.47;4955747;28;20062;-83
2022/10/28 04:55:23;;;;;;;83.88;44.95;;;;;;;17.21;78.74;102435.78;4959914;28;20061;-85
2022/10/28 04:57:58;;;;;;;80.25;43.30;;;;;;;17.17;78.96;102442.41;4955990;28;20588;-84
2022/10/28 05:00:32;;;;;;;81.55;47.15;;;;;;;16.10;78.48;102239.91;4967190;28;20630;-81
2022/10/28 05:03:02;;;;;;;81.63;44.60;;;;;;;17.38;78.28;102436.09;4978331;28;20263;-84
2022/10/28 05:05:35;;;;;;;85.75;45.92;;;;;;;17.42;78.27;102435.69;4968239;28;20054;-84
2022/10/28 05:08:05;;;;;;;95.72;51.28;;;;;;;17.37;78.36;102439.78;4940945;28;20576;-83
2022/10/28 05:10:36;;;;;;;84.35;45.60;;;;;;;17.39;78.06;102432.44;4947956;28;20325;-83
2022/10/28 05:13:11;;;;;;;88.65;49.13;;;;;;;17.24;78.07;102419.41;4959681;28;20216;-83
2022/10/28 05:15:40;;;;;;;89.85;45.97;;;;;;;17.36;78.37;102424.69;4961700;28;20413;-83
2022/10/28 05:18:14;;;;;;;84.22;49.08;;;;;;;17.14;77.90;102390.84;4951430;28;20051;-83
2022/10/28 05:20:42;;;;;;;82.50;46.58;;;;;;;16.80;78.52;102341.00;4959393;28;20050;-85
2022/10/28 05:23:15;;;;;;;95.45;49.30;;;;;;;17.35;78.52;102436.38;4973684;28;20143;-80
2022/10/28 05:25:44;;;;;;;92.82;48.88;;;;;;;17.29;78.44;102427.91;4956276;28;20160;-85
2022/10/28 05:28:12;;;;;;;81.55;46.63;;;;;;;17.32;78.71;102436.66;4969300;28;20049;-84
2022/10/28 05:30:46;;;;;;;87.10;48.55;;;;;;;16.98;78.36;102375.25;4940928;28;20126;-82
2022/10/28 05:33:13;;;;;;;86.00;47.00;;;;;;;17.21;78.56;102408.94;4913171;28;20059;-84
2022/10/28 05:35:54;;;;;;;87.20;47.75;;;;;;;17.27;78.84;102426.34;4956027;28;20054;-81
2022/10/28 05:38:21;;;;;;;86.32;46.65;;;;;;;17.14;78.88;102413.16;4962887;28;20217;-81
2022/10/28 05:40:48;;;;;;;87.75;47.05;;;;;;;17.27;78.97;102427.19;4962676;28;20729;-83
2022/10/28 05:43:18;;;;;;;92.03;48.88;;;;;;;17.23;78.84;102422.22;4958473;28;20744;-83
2022/10/28 05:45:56;;;;;;;85.07;46.58;;;;;;;17.23;78.65;102423.09;4949532;28;20556;-82
2022/10/28 05:48:24;;;;;;;100.45;45.65;;;;;;;17.27;78.92;102434.38;4963099;28;20665;-82
2022/10/28 05:50:51;;;;;;;84.13;47.08;;;;;;;16.95;78.54;102386.25;4963503;28;20105;-83
2022/10/28 05:53:20;;;;;;;84.30;47.30;;;;;;;17.14;78.71;102402.41;4960918;28;20065;-83
2022/10/28 05:55:53;;;;;;;86.70;44.05;;;;;;;17.20;78.48;102398.34;4949960;28;20604;-82
2022/10/28 05:58:21;;;;;;;83.78;45.70;;;;;;;17.16;78.43;102400.47;4940991;28;20050;-82
2022/10/28 06:00:48;;;;;;;91.88;47.95;;;;;;;16.48;78.71;102292.00;4941661;28;20254;-82
2022/10/28 06:03:20;;;;;;;88.00;48.30;;;;;;;16.60;78.89;102325.78;4943935;28;20153;-82
2022/10/28 06:05:58;;;;;;;90.60;48.15;;;;;;;17.28;78.96;102442.31;4942681;28;20057;-82
2022/10/28 06:08:27;;;;;;;87.73;47.00;;;;;;;16.62;79.41;102340.75;4945752;28;20587;-83
2022/10/28 06:11:00;;;;;;;;;;;;;;;17.23;79.34;102447.25;4943382;28;20815;-83
2022/10/28 06:13:30;;;;;;;87.00;45.92;;;;;;;16.10;79.18;102262.19;4957254;28;19925;-84
2022/10/28 06:15:58;;;;;;;82.32;47.92;;;;;;;17.14;79.46;102436.47;4975280;28;20128;-83
2022/10/28 06:18:24;;;;;;;92.90;49.10;;;;;;;16.77;79.54;102367.19;4970249;28;20077;-83
2022/10/28 06:20:59;;;;;;;89.60;49.25;;;;;;;17.31;79.23;102446.56;4964186;28;20054;-82
2022/10/28 06:23:28;;;;;;;84.43;49.47;;;;;;;17.03;79.42;102405.19;4965079;28;20050;-81
2022/10/28 06:26:02;;;;;;;103.25;51.20;;;;;;;17.11;79.18;102418.78;4961951;28;20156;-82
2022/10/28 06:28:30;;;;;;;122.82;55.63;;;;;;;17.02;79.21;102400.81;4980040;28;20054;-84
2022/10/28 06:31:05;;;;;;;101.22;51.45;;;;;;;16.82;79.14;102375.72;4975324;28;20394;-85
2022/10/28 06:33:41;;;;;;;94.88;50.25;;;;;;;17.38;79.26;102463.81;4943951;28;20732;-84
2022/10/28 06:36:14;;;;;;;92.53;47.30;;;;;;;16.35;79.21;102281.50;4957139;28;20050;-83
2022/10/28 06:38:41;;;;;;;101.78;48.80;;;;;;;17.46;79.25;102463.97;4956939;28;20084;-82
2022/10/28 06:41:08;;;;;;;92.82;48.03;;;;;;;17.45;78.88;102466.78;4960566;28;20047;-84
2022/10/28 06:43:35;;;;;;;95.72;48.67;;;;;;;16.79;79.46;102354.53;4952685;28;20057;-80
2022/10/28 06:46:04;;;;;;;81.68;46.53;;;;;;;17.09;79.08;102400.16;4940749;28;20556;-81
2022/10/28 06:48:37;;;;;;;81.80;47.42;;;;;;;16.96;79.32;102372.69;4941797;28;20180;-81
2022/10/28 06:51:04;;;;;;;81.53;46.90;;;;;;;17.57;79.09;102468.38;4939821;28;20082;-80
2022/10/28 06:53:35;;;;;;;86.80;47.92;;;;;;;17.50;79.18;102456.47;4941994;28;20406;-81
2022/10/28 06:56:02;;;;;;;86.70;46.88;;;;;;;17.62;78.83;102466.16;4943242;28;20042;-80
2022/10/28 06:58:33;;;;;;;82.57;47.58;;;;;;;17.37;78.75;102419.16;4941110;28;20419;-79
2022/10/28 07:01:15;;;;;;;87.63;47.13;;;;;;;17.75;79.14;102482.00;4941638;28;20138;-80
2022/10/28 07:03:45;;;;;;;95.03;46.45;;;;;;;17.40;78.71;102418.88;4941910;28;20331;-79
2022/10/28 07:06:14;;;;;;;86.38;47.25;;;;;;;17.77;78.79;102472.00;4941510;28;20591;-81
2022/10/28 07:08:41;;;;;;;77.35;44.80;;;;;;;17.56;78.55;102439.84;4959413;28;20527;-80
2022/10/28 07:11:11;;;;;;;85.40;46.47;;;;;;;17.57;78.08;102443.38;4960135;28;20639;-81
2022/10/28 07:13:39;;;;;;;83.45;44.78;;;;;;;17.94;78.22;102495.53;4959536;28;20086;-81
2022/10/28 07:16:09;;;;;;;79.93;44.67;;;;;;;17.39;78.18;102400.22;4943642;28;20078;-82
2022/10/28 07:18:36;;;;;;;78.53;46.10;;;;;;;17.83;77.86;102457.19;4958010;28;20559;-81
2022/10/28 07:21:05;;;;;;;86.55;47.30;;;;;;;18.11;77.66;102506.59;4959613;28;20081;-78
2022/10/28 07:23:33;;;;;;;84.97;46.40;;;;;;;18.00;78.21;102486.03;4957171;28;20128;-81
2022/10/28 07:26:02;;;;;;;79.57;46.00;;;;;;;18.18;77.39;102502.34;4959726;28;20437;-81
2022/10/28 07:28:32;;;;;;;78.00;45.78;;;;;;;18.11;77.33;102482.41;4957268;28;20054;-82
2022/10/28 07:31:03;;;;;;;77.90;46.13;;;;;;;18.26;77.46;102504.34;4955818;28;20058;-80
2022/10/28 07:33:30;;;;;;;78.03;45.17;;;;;;;18.04;77.21;102459.75;4941466;28;20050;-79
2022/10/28 07:35:57;;;;;;;78.15;45.50;;;;;;;18.33;77.60;102500.09;4944285;28;20241;-79
2022/10/28 07:38:26;;;;;;;86.15;45.33;;;;;;;18.19;77.32;102463.72;4945590;28;20141;-80
2022/10/28 07:40:53;;;;;;;92.63;48.83;;;;;;;18.57;76.47;102499.66;4940166;28;20113;-80
2022/10/28 07:43:20;;;;;;;85.22;46.60;;;;;;;17.89;75.39;102376.03;4939290;28;20630;-79
2022/10/28 07:45:56;;;;;;;84.22;48.55;;;;;;;18.75;75.17;102507.84;4941162;28;20047;-80
2022/10/28 07:48:23;;;;;;;88.63;46.83;;;;;;;18.73;74.48;102499.91;4945720;28;20062;-79
2022/10/28 07:50:50;;;;;;;83.55;46.65;;;;;;;18.68;74.49;102469.06;4964843;28;20412;-80
2022/10/28 07:53:17;;;;;;;89.20;44.47;;;;;;;18.88;74.40;102502.19;4964892;28;20142;-80
2022/10/28 07:55:57;;;;;;;88.95;46.10;;;;;;;18.89;73.57;102488.59;4963212;28;20324;-80
2022/10/28 07:58:26;;;;;;;84.28;44.72;;;;;;;19.11;73.54;102518.84;4966261;28;20105;-79
2022/10/28 08:00:53;;;;;;;81.57;45.45;;;;;;;19.19;72.74;102524.34;4967099;28;20073;-82
2022/10/28 08:03:25;;;;;;;90.47;43.00;;;;;;;19.18;72.11;102504.66;4975950;28;20440;-81
2022/10/28 08:06:14;;;;;;;86.93;42.35;;;;;;;19.10;71.65;102471.38;4974030;28;20511;-80
2022/10/28 08:08:42;;;;;;;90.45;43.33;;;;;;;19.40;71.00;102522.28;4965736;28;20658;-81
2022/10/28 08:11:14;;;;;;;77.43;42.97;;;;;;;18.94;71.26;102456.69;4963480;28;20058;-80
2022/10/28 08:13:47;;;;;;;79.10;42.53;;;;;;;19.24;71.38;102502.38;4963579;28;20046;-81
2022/10/28 08:16:20;;;;;;;79.18;42.08;;;;;;;19.31;71.04;102523.16;4964119;28;20160;-81
2022/10/28 08:18:47;;;;;;;90.05;45.22;;;;;;;19.43;70.86;102530.06;4964568;28;20837;-79
2022/10/28 08:21:14;;;;;;;80.15;42.00;;;;;;;19.38;70.89;102518.03;4944562;28;20469;-79
2022/10/28 08:23:45;;;;;;;75.07;42.13;;;;;;;19.09;71.76;102477.75;4945752;28;20302;-81
2022/10/28 08:26:16;;;;;;;84.37;43.93;;;;;;;19.44;70.86;102512.03;4947479;28;20487;-80
2022/10/28 08:28:48;;;;;;;71.13;42.70;;;;;;;19.67;70.20;102523.28;4951586;28;20317;-81
2022/10/28 08:31:17;;;;;;;80.60;42.63;;;;;;;19.54;70.70;102501.22;4958039;28;20054;-81
2022/10/28 08:33:45;;;;;;;81.50;43.28;;;;;;;19.24;70.48;102449.34;4967471;28;20683;-81
2022/10/28 08:36:20;;;;;;;93.55;43.22;;;;;;;19.74;70.32;102516.34;4963549;28;20054;-80
2022/10/28 08:38:58;;;;;;;90.60;44.72;;;;;;;19.47;70.17;102454.34;4944697;28;20054;-81
2022/10/28 08:41:29;;;;;;;;;;;;;;;19.46;69.90;102460.72;4948501;28;20074;-81
2022/10/28 08:44:33;;;;;;;92.68;43.85;;;;;;;19.60;69.83;102465.63;4945286;28;20094;-80
2022/10/28 08:47:07;;;;;;;79.65;45.80;;;;;;;20.28;68.16;102524.50;4944200;28;20129;-80
2022/10/28 08:49:41;;;;;;;82.15;44.30;;;;;;;19.61;68.58;102416.13;4958701;28;20054;-81
2022/10/28 08:52:47;;;;;;;87.53;45.42;;;;;;;19.49;68.78;102393.09;4964942;28;20054;-78
2022/10/28 08:55:31;;;;;;;88.38;45.10;;;;;;;20.29;68.02;102493.81;4959234;28;20059;-80
2022/10/28 08:58:19;;;;;;;79.40;44.92;;;;;;;20.57;66.96;102512.66;4944913;28;20246;-79
2022/10/28 09:00:53;;;;;;;80.10;45.30;;;;;;;20.73;66.58;102517.31;4943962;28;20233;-81
2022/10/28 09:03:21;;;;;;;83.25;45.90;;;;;;;20.66;66.85;102517.13;4950814;28;20066;-80
2022/10/28 09:06:09;;;;;;;98.15;43.95;;;;;;;20.61;66.52;102498.69;4945436;28;20059;-81
2022/10/28 09:08:43;;;;;;;89.70;44.70;;;;;;;20.62;67.02;102500.38;4948596;28;20467;-78
2022/10/28 09:11:36;;;;;;;85.75;45.38;;;;;;;20.77;66.77;102524.94;4958432;28;20058;-80
2022/10/28 09:14:27;;;;;;;88.10;42.00;;;;;;;20.80;67.05;102516.56;4964122;28;20047;-81
2022/10/28 09:17:09;;;;;;;78.55;40.70;;;;;;;20.60;65.68;102455.66;4966041;28;20061;-82
2022/10/28 09:20:02;;;;;;;83.68;42.45;;;;;;;20.98;65.89;102511.09;4955158;28;20078;-81
2022/10/28 09:22:40;;;;;;;70.05;41.50;;;;;;;21.08;65.98;102517.22;4943609;28;20559;-82
2022/10/28 09:25:26;;;;;;;76.70;44.28;;;;;;;20.77;65.81;102453.94;4944715;28;20781;-82
2022/10/28 09:28:30;;;;;;;78.03;43.33;;;;;;;21.32;65.05;102519.22;4944081;28;20498;-81
2022/10/28 09:31:02;;;;;;;98.45;47.97;;;;;;;21.37;64.62;102499.00;4964459;28;20058;-80
2022/10/28 09:33:33;;;;;;;83.07;47.42;;;;;;;21.62;64.28;102518.88;4962065;28;20133;-80
2022/10/28 09:36:03;;;;;;;96.70;46.90;;;;;;;21.43;64.95;102499.22;4951935;28;20082;-81
2022/10/28 09:38:34;;;;;;;98.45;49.15;;;;;;;21.21;64.41;102426.81;4959903;28;20310;-81
2022/10/28 09:41:13;;;;;;;80.68;46.42;;;;;;;21.34;63.87;102424.53;4961489;28;20654;-80
2022/10/28 09:43:48;;;;;;;83.47;47.23;;;;;;;20.80;64.08;102335.72;4959375;28;20054;-81
2022/10/28 09:46:17;;;;;;;90.18;48.03;;;;;;;21.98;64.24;102516.81;4953855;28;20058;-81
2022/10/28 09:48:50;;;;;;;94.72;48.00;;;;;;;21.71;64.04;102447.63;4946683;28;20662;-82
2022/10/28 09:51:58;;;;;;;98.50;48.85;;;;;;;22.21;63.50;102514.38;4961822;28;20180;-81
2022/10/28 09:54:33;;;;;;;92.32;49.35;;;;;;;22.20;63.62;102491.00;4908297;28;20120;-82
2022/10/28 09:57:03;;;;;;;93.10;47.00;;;;;;;22.03;62.15;102418.97;4945261;28;20055;-83
2022/10/28 09:59:30;;;;;;;87.60;46.10;;;;;;;22.19;62.08;102446.03;4941911;28;20058;-83
2022/10/28 10:01:59;;;;;;;102.43;48.35;;;;;;;22.69;61.49;102504.53;4942011;28;20623;-82
2022/10/28 10:04:34;;;;;;;90.15;46.45;;;;;;;22.35;62.12;102437.91;4957154;28;20061;-82
2022/10/28 10:07:09;;;;;;;90.28;47.05;;;;;;;22.97;61.33;102515.00;4946753;28;20550;-81
2022/10/28 10:09:38;;;;;;;97.82;51.15;;;;;;;22.71;60.80;102467.31;4940164;28;20065;-82
2022/10/28 10:12:09;;;;;;;102.43;51.10;;;;;;;23.00;59.63;102493.03;4956218;28;20055;-80
2022/10/28 10:14:48;;;;;;;97.93;50.28;;;;;;;22.57;60.42;102422.00;4958504;28;20186;-82
2022/10/28 10:17:20;;;;;;;97.63;51.00;;;;;;;23.20;60.53;102525.97;4959077;28;20077;-80
2022/10/28 10:20:02;;;;;;;100.47;50.58;;;;;;;23.00;59.54;102455.09;4957962;28;20058;-81
2022/10/28 10:22:42;;;;;;;91.88;48.58;;;;;;;22.91;59.70;102423.63;4950494;28;20210;-80
2022/10/28 10:25:28;;;;;;;96.07;49.95;;;;;;;23.57;58.99;102519.94;4964449;28;20077;-81
2022/10/28 10:28:06;;;;;;;98.38;52.85;;;;;;;23.26;57.98;102435.88;4964581;28;20050;-81
2022/10/28 10:30:43;;;;;;;100.55;48.67;;;;;;;22.99;58.03;102359.47;4964166;28;20131;-80
2022/10/28 10:33:40;;;;;;;94.25;51.22;;;;;;;23.76;57.50;102472.56;4946546;28;20139;-82
2022/10/28 10:36:07;;;;;;;101.95;52.22;;;;;;;23.47;57.05;102397.31;4951042;28;20053;-77
2022/10/28 10:38:53;;;;;;;92.32;49.22;;;;;;;24.07;57.36;102504.25;4990082;28;20188;-80
2022/10/28 10:41:36;;;;;;;82.97;50.42;;;;;;;23.70;57.31;102439.91;5004322;28;20831;-78
2022/10/28 10:44:30;;;;;;;87.93;49.50;;;;;;;24.24;56.82;102503.13;4967957;28;20098;-79
2022/10/28 10:47:00;;;;;;;80.90;46.17;;;;;;;24.27;56.58;102494.63;4970490;28;20603;-80
2022/10/28 10:49:35;;;;;;;83.45;47.20;;;;;;;24.22;56.92;102477.19;4974856;28;20046;-82
2022/10/28 10:52:08;;;;;;;83.60;48.88;;;;;;;24.36;56.91;102492.69;4965763;28;20238;-82
2022/10/28 10:54:39;;;;;;;83.35;46.30;;;;;;;23.94;56.19;102404.50;4964932;28;21311;-81
2022/10/28 10:57:15;;;;;;;87.28;48.00;;;;;;;24.28;56.38;102482.75;4948902;28;20300;-81
2022/10/28 10:59:48;;;;;;;87.30;47.33;;;;;;;24.24;56.30;102484.13;4942113;28;20062;-83
2022/10/28 11:02:24;;;;;;;86.35;44.42;;;;;;;23.53;56.05;102395.78;4939817;28;20138;-80
2022/10/28 11:05:01;;;;;;;75.90;45.90;;;;;;;23.11;56.86;102335.56;4940130;28;20075;-81
2022/10/28 11:07:33;;;;;;;86.22;46.63;;;;;;;23.73;57.34;102444.97;4952330;28;20136;-80
2022/10/28 11:10:19;;;;;;;81.60;43.15;;;;;;;23.61;56.89;102420.94;4941591;28;20284;-79
2022/10/28 11:12:54;;;;;;;82.80;42.08;;;;;;;23.13;57.50;102347.06;4941318;28;20066;-82
2022/10/28 11:15:30;;;;;;;75.38;41.05;;;;;;;23.00;56.51;102331.34;4939804;28;20065;-80
2022/10/28 11:18:19;;;;;;;74.22;39.97;;;;;;;23.13;55.50;102347.06;4943912;28;20062;-80
2022/10/28 11:21:14;;;;;;;68.75;39.67;;;;;;;23.03;55.12;102324.75;4943858;28;20559;-81
2022/10/28 11:23:44;;;;;;;74.85;40.40;;;;;;;23.70;55.98;102453.47;4944498;28;20130;-81
2022/10/28 11:26:14;;;;;;;76.43;39.17;;;;;;;23.45;56.60;102421.06;4943461;28;20107;-79
2022/10/28 11:28:49;;;;;;;66.00;37.47;;;;;;;23.50;56.39;102443.06;4945562;28;20114;-80
2022/10/28 11:31:29;;;;;;;71.38;38.78;;;;;;;23.51;56.76;102441.19;4947548;28;20073;-81
2022/10/28 11:34:17;;;;;;;73.85;41.40;;;;;;;23.48;57.15;102436.97;4970451;28;20266;-79
2022/10/28 11:36:53;;;;;;;67.50;39.53;;;;;;;23.48;56.32;102436.13;4954848;28;20624;-82
2022/10/28 11:39:49;;;;;;;70.63;42.22;;;;;;;23.51;56.53;102435.78;4938524;28;20046;-82
2022/10/28 11:42:32;;;;;;;78.90;41.53;;;;;;;23.37;56.45;102418.38;4940859;28;20161;-81
2022/10/28 11:45:07;;;;;;;89.47;43.50;;;;;;;23.34;57.13;102411.44;4942442;28;20113;-82